createdAt,value
2022-08-27T00:00:32.284Z,20.00
2022-08-27T00:02:59.204Z,19.90
2022-08-27T00:05:26.044Z,19.90
2022-08-27T00:07:52.713Z,19.90
2022-08-27T00:10:23.221Z,19.90
2022-08-27T00:12:49.879Z,20.00
2022-08-27T00:15:18.044Z,20.00
2022-08-27T00:17:45.963Z,20.00
2022-08-27T00:20:16.582Z,20.00
2022-08-27T00:22:43.303Z,20.10
2022-08-27T00:25:11.305Z,20.10
2022-08-27T00:27:38.419Z,20.00
2022-08-27T00:30:08.643Z,20.00
2022-08-27T00:32:35.399Z,20.00
2022-08-27T00:35:02.244Z,20.00
2022-08-27T00:37:29.026Z,19.90
2022-08-27T00:39:55.771Z,19.80
2022-08-27T00:42:22.734Z,19.80
2022-08-27T00:44:49.753Z,19.70
2022-08-27T00:47:21.959Z,19.80
2022-08-27T00:50:09.302Z,19.90
2022-08-27T00:52:51.053Z,19.90
2022-08-27T00:55:27.474Z,19.90
2022-08-27T00:58:07.522Z,19.90
2022-08-27T01:00:34.673Z,19.90
2022-08-27T01:03:01.498Z,19.80
2022-08-27T01:05:28.562Z,19.80
2022-08-27T01:08:02.077Z,19.80
2022-08-27T01:10:29.792Z,19.70
2022-08-27T01:12:57.059Z,19.70
2022-08-27T01:15:27.825Z,19.60
2022-08-27T01:17:57.480Z,19.50
2022-08-27T01:20:29.458Z,19.50
2022-08-27T01:26:44.084Z,19.40
2022-08-27T01:29:11.712Z,19.40
2022-08-27T01:31:39.231Z,19.40
2022-08-27T01:34:06.669Z,19.40
2022-08-27T01:36:33.769Z,19.30
2022-08-27T01:39:00.875Z,19.30
2022-08-27T01:41:27.546Z,19.20
2022-08-27T01:43:54.410Z,19.20
2022-08-27T01:46:26.560Z,19.20
2022-08-27T01:48:54.090Z,19.20
2022-08-27T01:51:21.286Z,19.20
2022-08-27T01:53:48.780Z,19.20
2022-08-27T01:56:15.619Z,19.30
2022-08-27T01:58:43.399Z,19.30
2022-08-27T02:01:13.084Z,19.20
2022-08-27T02:03:40.812Z,19.20
2022-08-27T02:06:09.915Z,19.10
2022-08-27T02:08:37.325Z,19.10
2022-08-27T02:11:04.727Z,19.10
2022-08-27T02:13:31.537Z,19.10
2022-08-27T02:15:58.246Z,19.10
2022-08-27T02:18:25.021Z,19.20
2022-08-27T02:20:51.790Z,19.10
2022-08-27T02:23:18.737Z,19.10
2022-08-27T02:25:47.215Z,19.20
2022-08-27T02:28:14.239Z,19.10
2022-08-27T02:30:41.589Z,19.10
2022-08-27T02:33:08.360Z,19.00
2022-08-27T02:35:40.582Z,18.90
2022-08-27T02:38:08.109Z,18.90
2022-08-27T02:40:36.080Z,18.80
2022-08-27T02:43:03.103Z,18.80
2022-08-27T02:45:29.990Z,18.90
2022-08-27T02:47:56.690Z,18.90
2022-08-27T02:50:26.912Z,18.90
2022-08-27T02:52:54.730Z,18.90
2022-08-27T02:55:22.393Z,18.90
2022-08-27T02:57:49.073Z,18.90
2022-08-27T03:00:19.254Z,18.90
2022-08-27T03:02:46.007Z,18.90
2022-08-27T03:05:14.417Z,18.90
2022-08-27T03:07:41.855Z,18.90
2022-08-27T03:10:10.918Z,18.90
2022-08-27T03:12:37.820Z,18.90
2022-08-27T03:15:07.022Z,18.80
2022-08-27T03:17:52.173Z,18.80
2022-08-27T03:20:19.059Z,18.70
2022-08-27T03:22:46.118Z,18.70
2022-08-27T03:25:13.343Z,18.70
2022-08-27T03:27:40.758Z,18.70
2022-08-27T03:30:11.721Z,18.60
2022-08-27T03:32:39.785Z,18.60
2022-08-27T03:35:06.938Z,18.60
2022-08-27T03:37:33.777Z,18.60
2022-08-27T03:40:00.652Z,18.70
2022-08-27T03:42:27.573Z,18.60
2022-08-27T03:44:54.206Z,18.50
2022-08-27T03:47:22.491Z,18.50
2022-08-27T03:49:49.594Z,18.50
2022-08-27T03:52:16.953Z,18.40
2022-08-27T03:54:43.607Z,18.40
2022-08-27T03:57:10.989Z,18.40
2022-08-27T03:59:38.035Z,18.30
2022-08-27T04:02:05.491Z,18.30
2022-08-27T04:04:32.423Z,18.30
2022-08-27T04:06:59.767Z,18.30
2022-08-27T04:09:26.993Z,18.40
2022-08-27T04:11:54.728Z,18.40
2022-08-27T04:14:26.284Z,18.40
2022-08-27T04:16:55.893Z,18.40
2022-08-27T04:19:27.243Z,18.40
2022-08-27T04:21:58.025Z,18.40
2022-08-27T04:24:24.977Z,18.40
2022-08-27T04:26:51.652Z,18.40
2022-08-27T04:29:18.281Z,18.40
2022-08-27T04:31:45.320Z,18.40
2022-08-27T04:34:11.990Z,18.50
2022-08-27T04:36:38.654Z,18.50
2022-08-27T04:39:05.289Z,18.50
2022-08-27T04:41:33.468Z,18.60
2022-08-27T04:44:05.194Z,18.60
2022-08-27T04:46:34.938Z,18.50
2022-08-27T04:49:10.521Z,18.50
2022-08-27T04:51:40.011Z,18.50
2022-08-27T04:54:07.221Z,18.60
2022-08-27T04:56:34.955Z,18.50
2022-08-27T04:59:06.686Z,18.50
2022-08-27T05:01:34.293Z,18.40
2022-08-27T05:04:01.124Z,18.40
2022-08-27T05:06:28.804Z,18.30
2022-08-27T05:08:56.127Z,18.30
2022-08-27T05:11:26.232Z,18.20
2022-08-27T05:13:53.066Z,18.20
2022-08-27T05:16:22.735Z,18.20
2022-08-27T05:18:50.914Z,18.20
2022-08-27T05:21:30.399Z,18.20
2022-08-27T05:23:58.809Z,18.20
2022-08-27T05:26:27.282Z,18.20
2022-08-27T05:28:54.724Z,18.20
2022-08-27T05:31:22.770Z,18.20
2022-08-27T05:33:49.907Z,18.20
2022-08-27T05:36:33.090Z,18.20
2022-08-27T05:39:01.403Z,18.20
2022-08-27T05:41:34.073Z,18.10
2022-08-27T05:44:18.570Z,18.10
2022-08-27T05:46:51.695Z,18.10
2022-08-27T05:49:18.425Z,18.10
2022-08-27T05:51:45.141Z,18.10
2022-08-27T05:54:18.689Z,18.20
2022-08-27T05:56:46.466Z,18.10
2022-08-27T05:59:31.858Z,18.10
2022-08-27T06:02:02.181Z,18.10
2022-08-27T06:04:28.830Z,18.10
2022-08-27T06:06:55.538Z,18.10
2022-08-27T06:09:24.820Z,18.10
2022-08-27T06:11:54.187Z,18.20
2022-08-27T06:14:20.983Z,18.20
2022-08-27T06:16:48.593Z,18.30
2022-08-27T06:19:15.996Z,18.20
2022-08-27T06:21:42.919Z,18.30
2022-08-27T06:24:14.471Z,18.20
2022-08-27T06:26:43.637Z,18.20
2022-08-27T06:29:12.009Z,18.30
2022-08-27T06:31:40.446Z,18.30
2022-08-27T06:34:08.987Z,18.30
2022-08-27T06:36:38.971Z,18.40
2022-08-27T06:39:06.858Z,18.50
2022-08-27T06:41:34.806Z,18.60
2022-08-27T06:44:01.689Z,18.70
2022-08-27T06:46:29.347Z,18.60
2022-08-27T06:48:58.498Z,18.60
2022-08-27T06:51:28.513Z,18.70
2022-08-27T06:53:56.971Z,18.60
2022-08-27T06:56:23.867Z,18.70
2022-08-27T06:58:55.909Z,18.70
2022-08-27T07:01:27.893Z,18.70
2022-08-27T07:04:00.163Z,18.80
2022-08-27T07:06:29.299Z,18.80
2022-08-27T07:08:59.318Z,18.60
2022-08-27T07:11:27.447Z,18.60
2022-08-27T07:13:54.662Z,18.60
2022-08-27T07:16:24.279Z,18.60
2022-08-27T07:18:53.352Z,18.60
2022-08-27T07:21:21.352Z,18.60
2022-08-27T07:23:50.180Z,18.60
2022-08-27T07:26:17.874Z,18.60
2022-08-27T07:28:46.538Z,18.70
2022-08-27T07:31:17.069Z,18.70
2022-08-27T07:33:46.272Z,18.80
2022-08-27T07:36:18.909Z,18.90
2022-08-27T07:38:46.270Z,18.80
2022-08-27T07:41:24.867Z,18.90
2022-08-27T07:44:15.959Z,18.80
2022-08-27T07:46:47.623Z,18.70
2022-08-27T07:49:15.394Z,18.70
2022-08-27T07:51:42.051Z,18.70
2022-08-27T07:54:08.946Z,18.70
2022-08-27T07:56:35.615Z,18.80
2022-08-27T07:59:02.362Z,18.80
2022-08-27T08:01:30.020Z,18.80
2022-08-27T08:03:57.135Z,19.00
2022-08-27T08:06:23.874Z,19.10
2022-08-27T08:08:50.695Z,19.20
2022-08-27T08:11:18.385Z,19.30
2022-08-27T08:13:45.789Z,19.40
2022-08-27T08:16:12.798Z,19.30
2022-08-27T08:18:40.689Z,19.50
2022-08-27T08:21:09.865Z,19.70
2022-08-27T08:23:36.717Z,19.80
2022-08-27T08:26:03.667Z,19.80
2022-08-27T08:28:39.798Z,19.80
2022-08-27T08:31:07.715Z,19.80
2022-08-27T08:33:34.831Z,19.90
2022-08-27T08:36:13.470Z,19.80
2022-08-27T08:38:40.761Z,19.80
2022-08-27T08:41:34.707Z,19.90
2022-08-27T08:44:16.653Z,20.10
2022-08-27T08:46:52.909Z,20.20
2022-08-27T08:49:29.999Z,20.20
2022-08-27T08:52:06.244Z,20.20
2022-08-27T08:54:34.629Z,20.30
2022-08-27T08:57:10.301Z,20.30
2022-08-27T08:59:47.512Z,20.30
2022-08-27T09:02:15.651Z,20.30
2022-08-27T09:04:44.323Z,20.30
2022-08-27T09:07:38.598Z,20.50
2022-08-27T09:10:17.479Z,20.70
2022-08-27T09:12:44.295Z,20.80
2022-08-27T09:15:21.836Z,20.70
2022-08-27T09:17:50.228Z,20.70
2022-08-27T09:20:20.726Z,20.90
2022-08-27T09:23:14.365Z,20.90
2022-08-27T09:25:42.923Z,20.90
2022-08-27T09:28:33.166Z,20.80
2022-08-27T09:31:09.054Z,20.80
2022-08-27T09:33:44.607Z,20.90
2022-08-27T09:36:23.864Z,20.90
2022-08-27T09:39:05.050Z,20.90
2022-08-27T09:41:40.885Z,20.70
2022-08-27T09:44:10.418Z,20.60
2022-08-27T09:46:37.284Z,20.60
2022-08-27T09:49:16.454Z,20.60
2022-08-27T09:51:46.316Z,20.60
2022-08-27T09:54:26.324Z,20.70
2022-08-27T09:56:53.093Z,20.70
2022-08-27T09:59:34.381Z,20.80
2022-08-27T10:02:17.873Z,20.90
2022-08-27T10:04:53.956Z,21.20
2022-08-27T10:07:27.813Z,21.30
2022-08-27T10:10:10.690Z,21.60
2022-08-27T10:12:58.965Z,21.60
2022-08-27T10:15:36.452Z,21.90
2022-08-27T10:18:31.864Z,21.80
2022-08-27T10:21:29.860Z,21.80
2022-08-27T10:24:37.717Z,21.90
2022-08-27T10:27:33.764Z,22.00
2022-08-27T10:30:12.532Z,22.10
2022-08-27T10:33:21.449Z,22.20
2022-08-27T10:35:58.086Z,22.10
2022-08-27T10:38:44.457Z,22.10
2022-08-27T10:41:17.421Z,22.10
2022-08-27T10:44:08.826Z,22.20
2022-08-27T10:47:13.229Z,22.20
2022-08-27T10:49:45.699Z,22.20
2022-08-27T10:52:41.886Z,22.00
2022-08-27T10:55:20.085Z,22.00
2022-08-27T10:58:17.632Z,22.00
2022-08-27T11:01:09.063Z,21.80
2022-08-27T11:03:55.021Z,21.60
2022-08-27T11:06:52.528Z,21.60
2022-08-27T11:09:34.951Z,21.60
2022-08-27T11:12:15.077Z,21.70
2022-08-27T11:15:00.320Z,21.60
2022-08-27T11:17:41.787Z,21.70
2022-08-27T11:20:22.629Z,21.60
2022-08-27T11:23:08.389Z,21.70
2022-08-27T11:25:46.597Z,21.60
2022-08-27T11:28:14.492Z,21.60
2022-08-27T11:30:46.254Z,21.60
2022-08-27T11:33:35.301Z,21.70
2022-08-27T11:36:23.171Z,21.90
2022-08-27T11:38:54.028Z,21.80
2022-08-27T11:41:46.627Z,21.70
2022-08-27T11:44:19.368Z,21.60
2022-08-27T11:46:49.213Z,21.50
2022-08-27T11:49:45.975Z,21.50
2022-08-27T11:52:19.947Z,21.20
2022-08-27T11:54:52.934Z,21.20
2022-08-27T11:57:33.074Z,21.30
2022-08-27T12:00:16.956Z,21.40
2022-08-27T12:02:45.074Z,21.60
2022-08-27T12:05:34.707Z,21.70
2022-08-27T12:08:31.976Z,21.60
2022-08-27T12:11:23.173Z,21.60
2022-08-27T12:13:49.764Z,21.60
2022-08-27T12:16:23.813Z,21.70
2022-08-27T12:19:11.285Z,21.80
2022-08-27T12:21:52.589Z,21.90
2022-08-27T12:24:40.570Z,22.00
2022-08-27T12:27:15.572Z,22.10
2022-08-27T12:29:50.677Z,22.00
2022-08-27T12:32:27.929Z,21.90
2022-08-27T12:35:15.253Z,21.90
2022-08-27T12:37:57.836Z,21.80
2022-08-27T12:40:30.678Z,21.80
2022-08-27T12:43:17.372Z,21.90
2022-08-27T12:45:47.901Z,21.90
2022-08-27T12:48:23.048Z,21.90
2022-08-27T12:51:00.646Z,21.90
2022-08-27T12:53:51.491Z,21.90
2022-08-27T12:56:44.082Z,21.90
2022-08-27T12:59:23.807Z,21.80
2022-08-27T13:02:05.395Z,21.90
2022-08-27T13:04:34.167Z,22.00
2022-08-27T13:07:00.943Z,22.00
2022-08-27T13:09:33.325Z,22.00
2022-08-27T13:12:04.314Z,22.20
2022-08-27T13:14:40.171Z,22.20
2022-08-27T13:17:14.495Z,22.20
2022-08-27T13:20:05.072Z,22.10
2022-08-27T13:22:38.713Z,22.10
2022-08-27T13:25:07.706Z,22.10
2022-08-27T13:27:36.699Z,22.30
2022-08-27T13:30:08.498Z,22.20
2022-08-27T13:32:37.282Z,22.10
2022-08-27T13:35:06.490Z,22.10
2022-08-27T13:37:44.792Z,22.10
2022-08-27T13:40:45.727Z,21.90
2022-08-27T13:43:13.727Z,21.90
2022-08-27T13:45:41.721Z,21.90
2022-08-27T13:48:11.575Z,22.20
2022-08-27T13:50:47.038Z,22.40
2022-08-27T13:53:40.197Z,22.60
2022-08-27T13:56:07.859Z,22.70
2022-08-27T13:58:35.434Z,22.80
2022-08-27T14:01:30.036Z,22.80
2022-08-27T14:04:20.353Z,22.80
2022-08-27T14:06:47.956Z,23.00
2022-08-27T14:09:26.054Z,23.30
2022-08-27T14:12:05.425Z,23.50
2022-08-27T14:14:38.307Z,23.50
2022-08-27T14:17:08.906Z,23.60
2022-08-27T14:19:37.183Z,23.50
2022-08-27T14:22:04.187Z,23.30
2022-08-27T14:24:30.812Z,23.30
2022-08-27T14:27:07.914Z,23.20
2022-08-27T14:29:34.574Z,23.20
2022-08-27T14:32:01.409Z,23.20
2022-08-27T14:34:28.505Z,23.30
2022-08-27T14:36:55.221Z,23.20
2022-08-27T14:39:26.524Z,22.80
2022-08-27T14:41:54.514Z,22.80
2022-08-27T14:44:21.839Z,22.60
2022-08-27T14:46:48.831Z,22.50
2022-08-27T14:49:21.837Z,22.50
2022-08-27T14:51:49.060Z,22.40
2022-08-27T14:54:15.743Z,22.40
2022-08-27T14:56:42.513Z,22.40
2022-08-27T14:59:09.285Z,22.30
2022-08-27T15:01:38.130Z,22.30
2022-08-27T15:04:06.315Z,22.20
2022-08-27T15:06:33.512Z,22.10
2022-08-27T15:09:00.737Z,22.20
2022-08-27T15:11:31.516Z,22.10
2022-08-27T15:14:00.625Z,22.10
2022-08-27T15:16:38.127Z,22.20
2022-08-27T15:19:07.226Z,22.30
2022-08-27T15:21:35.986Z,22.40
2022-08-27T15:24:16.937Z,22.40
2022-08-27T15:26:45.229Z,22.40
2022-08-27T15:29:17.133Z,22.30
2022-08-27T15:31:44.981Z,22.20
2022-08-27T15:34:12.337Z,22.20
2022-08-27T15:36:39.700Z,22.30
2022-08-27T15:39:06.941Z,22.30
2022-08-27T15:41:41.789Z,22.20
2022-08-27T15:44:21.530Z,22.20
2022-08-27T15:46:51.250Z,22.20
2022-08-27T15:49:17.920Z,22.00
2022-08-27T15:51:45.035Z,22.10
2022-08-27T15:54:13.211Z,22.10
2022-08-27T15:56:40.026Z,22.00
2022-08-27T15:59:07.230Z,21.90
2022-08-27T16:01:36.579Z,22.00
2022-08-27T16:04:04.617Z,22.00
2022-08-27T16:06:31.407Z,22.00
2022-08-27T16:09:00.136Z,21.90
2022-08-27T16:11:26.895Z,21.90
2022-08-27T16:13:55.474Z,21.80
2022-08-27T16:16:31.998Z,21.70
2022-08-27T16:19:04.142Z,21.70
2022-08-27T16:21:31.545Z,21.80
2022-08-27T16:23:58.346Z,21.70
2022-08-27T16:26:26.144Z,21.80
2022-08-27T16:28:52.826Z,21.70
2022-08-27T16:31:20.156Z,21.70
2022-08-27T16:33:47.047Z,21.60
2022-08-27T16:36:13.861Z,21.50
2022-08-27T16:38:41.109Z,21.40
2022-08-27T16:41:08.277Z,21.40
2022-08-27T16:43:34.942Z,21.20
2022-08-27T16:46:01.983Z,21.10
2022-08-27T16:48:47.762Z,21.00
2022-08-27T16:51:22.842Z,21.00
2022-08-27T16:53:50.802Z,20.90
2022-08-27T16:56:20.596Z,20.80
2022-08-27T16:58:54.193Z,20.70
2022-08-27T17:01:23.221Z,20.70
2022-08-27T17:04:16.366Z,20.70
2022-08-27T17:06:41.284Z,20.70
2022-08-27T17:09:11.724Z,20.70
2022-08-27T17:11:42.601Z,20.70
2022-08-27T17:14:10.815Z,20.80
2022-08-27T17:16:40.347Z,20.70
2022-08-27T17:19:07.093Z,20.70
2022-08-27T17:21:37.008Z,20.70
2022-08-27T17:24:04.845Z,20.60
2022-08-27T17:26:38.041Z,20.60
2022-08-27T17:29:04.735Z,20.60
2022-08-27T17:31:35.560Z,20.50
2022-08-27T17:34:02.944Z,20.40
2022-08-27T17:36:30.781Z,20.40
2022-08-27T17:38:58.228Z,20.40
2022-08-27T17:41:33.609Z,20.40
2022-08-27T17:44:06.464Z,20.30
2022-08-27T17:46:33.173Z,20.30
2022-08-27T17:48:59.877Z,20.30
2022-08-27T17:51:27.828Z,20.20
2022-08-27T17:54:01.470Z,20.20
2022-08-27T17:56:29.652Z,20.20
2022-08-27T17:58:56.532Z,20.10
2022-08-27T18:01:31.447Z,20.10
2022-08-27T18:03:58.668Z,20.10
2022-08-27T18:06:26.935Z,20.10
2022-08-27T18:08:53.774Z,20.10
2022-08-27T18:11:20.494Z,20.10
2022-08-27T18:13:52.542Z,20.10
2022-08-27T18:16:19.852Z,20.00
2022-08-27T18:18:47.001Z,20.00
2022-08-27T18:21:13.891Z,20.00
2022-08-27T18:23:51.715Z,20.00
2022-08-27T18:26:20.415Z,20.00
2022-08-27T18:28:48.125Z,20.00
2022-08-27T18:31:19.760Z,20.00
2022-08-27T18:33:46.579Z,20.00
2022-08-27T18:36:14.823Z,19.90
2022-08-27T18:38:41.457Z,19.90
2022-08-27T18:41:08.992Z,19.90
2022-08-27T18:43:36.182Z,19.90
2022-08-27T18:46:04.464Z,19.90
2022-08-27T18:48:31.319Z,19.80
2022-08-27T18:51:00.052Z,19.80
2022-08-27T18:53:30.726Z,19.80
2022-08-27T18:55:58.160Z,19.70
2022-08-27T18:58:24.964Z,19.80
2022-08-27T19:00:55.674Z,19.80
2022-08-27T19:03:29.910Z,19.70
2022-08-27T19:05:56.853Z,19.80
2022-08-27T19:08:24.517Z,19.80
2022-08-27T19:10:51.590Z,19.70
2022-08-27T19:13:18.464Z,19.70
2022-08-27T19:15:51.506Z,19.70
2022-08-27T19:18:18.617Z,19.70
2022-08-27T19:20:45.271Z,19.60
2022-08-27T19:23:12.057Z,19.60
2022-08-27T19:25:38.861Z,19.60
2022-08-27T19:28:05.938Z,19.70
2022-08-27T19:30:32.708Z,19.70
2022-08-27T19:32:59.392Z,19.70
2022-08-27T19:35:26.164Z,19.60
2022-08-27T19:37:53.541Z,19.60
2022-08-27T19:40:21.938Z,19.60
2022-08-27T19:42:50.670Z,19.50
2022-08-27T19:45:23.712Z,19.50
2022-08-27T19:47:52.307Z,19.50
2022-08-27T19:50:22.445Z,19.50
2022-08-27T19:52:50.023Z,19.50
2022-08-27T19:55:17.006Z,19.50
2022-08-27T19:57:45.065Z,19.50
2022-08-27T20:00:14.779Z,19.40
2022-08-27T20:02:41.517Z,19.40
2022-08-27T20:05:24.103Z,19.40
2022-08-27T20:07:52.433Z,19.40
2022-08-27T20:10:21.584Z,19.40
2022-08-27T20:12:49.241Z,19.30
2022-08-27T20:15:16.454Z,19.30
2022-08-27T20:17:43.972Z,19.40
2022-08-27T20:20:13.245Z,19.40
2022-08-27T20:22:40.031Z,19.30
2022-08-27T20:25:07.875Z,19.20
2022-08-27T20:27:35.529Z,19.10
2022-08-27T20:30:04.607Z,19.00
2022-08-27T20:32:31.465Z,19.00
2022-08-27T20:34:58.117Z,19.00
2022-08-27T20:37:25.044Z,19.00
2022-08-27T20:39:52.411Z,19.00
2022-08-27T20:42:20.125Z,19.00
2022-08-27T20:44:47.252Z,19.00
2022-08-27T20:47:15.403Z,19.00
2022-08-27T20:49:44.580Z,19.00
2022-08-27T20:52:13.130Z,19.00
2022-08-27T20:54:40.519Z,18.90
2022-08-27T20:57:08.629Z,18.80
2022-08-27T20:59:53.999Z,18.90
2022-08-27T21:02:25.301Z,18.90
2022-08-27T21:04:53.259Z,18.90
2022-08-27T21:07:21.324Z,18.90
2022-08-27T21:09:56.516Z,18.90
2022-08-27T21:12:26.032Z,18.90
2022-08-27T21:14:56.164Z,18.90
2022-08-27T21:17:24.545Z,18.90
2022-08-27T21:19:51.665Z,18.90
2022-08-27T21:22:19.543Z,18.90
2022-08-27T21:24:47.446Z,18.90
2022-08-27T21:27:15.455Z,18.80
2022-08-27T21:29:44.537Z,18.80
2022-08-27T21:32:11.832Z,18.90
2022-08-27T21:34:38.749Z,18.90
2022-08-27T21:37:06.477Z,18.80
2022-08-27T21:39:34.228Z,18.80
2022-08-27T21:42:01.550Z,18.80
2022-08-27T21:44:30.792Z,18.80
2022-08-27T21:46:58.607Z,18.80
2022-08-27T21:49:25.287Z,18.80
2022-08-27T21:51:52.050Z,18.80
2022-08-27T21:54:18.737Z,18.80
2022-08-27T21:56:45.770Z,18.80
2022-08-27T21:59:12.516Z,18.80
2022-08-27T22:01:39.558Z,18.80
2022-08-27T22:04:06.357Z,18.70
2022-08-27T22:06:33.154Z,18.70
2022-08-27T22:09:00.074Z,18.60
2022-08-27T22:11:27.351Z,18.50
2022-08-27T22:13:58.235Z,18.40
2022-08-27T22:16:25.044Z,18.50
2022-08-27T22:18:54.766Z,18.50
2022-08-27T22:21:22.722Z,18.60
2022-08-27T22:23:51.332Z,18.60
2022-08-27T22:26:19.346Z,18.60
2022-08-27T22:28:45.975Z,18.60
2022-08-27T22:31:13.009Z,18.60
2022-08-27T22:33:39.817Z,18.50
2022-08-27T22:36:06.659Z,18.40
2022-08-27T22:38:33.453Z,18.50
2022-08-27T22:41:00.193Z,18.50
2022-08-27T22:43:27.934Z,18.40
2022-08-27T22:45:54.619Z,18.40
2022-08-27T22:48:21.297Z,18.40
2022-08-27T22:50:47.926Z,18.40
2022-08-27T22:53:14.712Z,18.40
2022-08-27T22:55:41.376Z,18.40
2022-08-27T22:58:08.091Z,18.40
2022-08-27T23:00:37.661Z,18.40
2022-08-27T23:03:06.744Z,18.40
2022-08-27T23:05:41.846Z,18.30
2022-08-27T23:08:11.334Z,18.30
2022-08-27T23:10:43.504Z,18.20
2022-08-27T23:13:12.045Z,18.30
2022-08-27T23:15:39.265Z,18.20
2022-08-27T23:18:06.612Z,18.20
2022-08-27T23:20:34.167Z,18.20
2022-08-27T23:23:01.306Z,18.10
2022-08-27T23:25:48.658Z,18.20
2022-08-27T23:28:15.775Z,18.20
2022-08-27T23:30:44.192Z,18.20
2022-08-27T23:33:12.640Z,18.20
2022-08-27T23:35:41.116Z,18.20
2022-08-27T23:38:07.776Z,18.10
2022-08-27T23:40:34.735Z,18.10
2022-08-27T23:43:01.731Z,18.20
2022-08-27T23:45:28.423Z,18.20
2022-08-27T23:47:55.051Z,18.20
2022-08-27T23:50:23.164Z,18.20
2022-08-27T23:53:00.513Z,18.10
2022-08-27T23:55:27.700Z,18.20
2022-08-27T23:58:01.386Z,18.10
